Time;durP1;ratioP1;P1;durP2;ratioP2;P2;SDS_P1;SDS_P2;PMS_P1;PMS_P2;Temp;Humidity;BMP_temperature;BMP_pressure;BME280_temperature;BME280_humidity;BME280_pressure;Samples;Min_cycle;Max_cycle;Signal;HPM_P1;HPM_P2
2023/07/27 00:01:24;;;;;;;2.47;0.85;;;13.00;99.90;;;;;;6343352;22;20310;-83
2023/07/27 00:03:49;;;;;;;1.50;0.95;;;12.90;99.90;;;;;;6369355;22;20022;-83
2023/07/27 00:06:15;;;;;;;2.53;1.08;;;12.90;99.90;;;;;;6370166;22;20322;-83
2023/07/27 00:08:41;;;;;;;2.17;0.70;;;12.90;99.90;;;;;;6342980;22;20018;-84
2023/07/27 00:11:07;;;;;;;1.40;0.93;;;12.90;99.90;;;;;;6371541;22;20014;-82
2023/07/27 00:13:32;;;;;;;2.00;0.80;;;12.80;99.90;;;;;;6371401;22;20466;-83
2023/07/27 00:15:58;;;;;;;1.80;0.82;;;13.00;99.90;;;;;;6370684;22;20029;-84
2023/07/27 00:18:24;;;;;;;1.63;0.80;;;12.80;99.90;;;;;;6369462;22;20017;-83
2023/07/27 00:20:49;;;;;;;2.05;0.98;;;12.70;99.90;;;;;;6369391;22;20104;-83
2023/07/27 00:23:15;;;;;;;2.38;0.82;;;13.10;99.90;;;;;;6370722;22;20045;-82
2023/07/27 00:25:41;;;;;;;2.03;0.65;;;12.70;99.90;;;;;;6370918;22;20075;-83
2023/07/27 00:28:06;;;;;;;3.10;1.40;;;12.70;99.90;;;;;;6369044;22;20045;-83
2023/07/27 00:30:32;;;;;;;2.00;0.90;;;12.80;99.90;;;;;;6371257;22;20437;-82
2023/07/27 00:32:58;;;;;;;2.15;0.80;;;12.50;99.90;;;;;;6370723;22;20506;-84
2023/07/27 00:35:24;;;;;;;2.35;0.90;;;12.40;99.90;;;;;;6370202;22;20384;-83
2023/07/27 00:37:49;;;;;;;1.85;0.98;;;12.50;99.90;;;;;;6369040;22;20017;-83
2023/07/27 00:40:17;;;;;;;1.73;0.70;;;12.40;99.90;;;;;;6370524;22;20344;-84
2023/07/27 00:42:43;;;;;;;1.50;0.80;;;12.40;99.90;;;;;;6370519;22;20446;-83
2023/07/27 00:45:09;;;;;;;2.58;0.93;;;12.40;99.90;;;;;;6370683;22;20018;-83
2023/07/27 00:47:35;;;;;;;1.17;0.63;;;12.50;99.90;;;;;;6370921;22;20346;-83
2023/07/27 00:50:01;;;;;;;1.60;0.80;;;12.40;99.90;;;;;;6370918;22;20048;-83
2023/07/27 00:52:26;;;;;;;1.80;0.90;;;12.40;99.90;;;;;;6370252;22;20018;-84
2023/07/27 00:54:55;;;;;;;1.65;0.70;;;12.40;99.90;;;;;;6370355;22;20049;-83
2023/07/27 00:57:22;;;;;;;1.98;0.70;;;12.40;99.90;;;;;;6342445;22;20070;-84
2023/07/27 00:59:49;;;;;;;3.17;0.90;;;12.70;99.90;;;;;;6341854;22;20018;-85
2023/07/27 01:02:15;;;;;;;1.52;0.77;;;12.30;99.90;;;;;;6370201;22;20067;-84
2023/07/27 01:04:41;;;;;;;3.65;0.90;;;12.40;99.90;;;;;;6370387;22;20014;-85
2023/07/27 01:07:07;;;;;;;2.05;0.80;;;12.40;99.90;;;;;;6370454;22;20014;-83
2023/07/27 01:09:32;;;;;;;4.65;0.77;;;12.40;99.90;;;;;;6342319;22;20017;-84
2023/07/27 01:12:18;;;;;;;2.00;0.90;;;12.50;99.90;;;;;;6341988;22;20443;-85
2023/07/27 01:15:09;;;;;;;1.95;0.90;;;12.30;99.90;;;;;;6342965;22;20010;-84
2023/07/27 01:17:40;;;;;;;1.95;0.90;;;12.40;99.90;;;;;;6370281;22;20017;-85
2023/07/27 01:20:23;;;;;;;3.55;0.90;;;12.30;99.90;;;;;;6341656;22;20014;-84
2023/07/27 01:23:33;;;;;;;1.95;0.80;;;12.30;99.90;;;;;;6342237;22;20015;-84
2023/07/27 01:26:29;;;;;;;2.28;1.00;;;12.30;99.90;;;;;;6370665;22;20478;-84
2023/07/27 01:29:34;;;;;;;3.10;1.20;;;12.30;99.90;;;;;;6370781;22;20018;-84
2023/07/27 01:32:02;;;;;;;10.35;9.48;;;12.30;99.90;;;;;;6370385;22;20014;-83
2023/07/27 01:34:31;;;;;;;2.05;1.10;;;12.30;99.90;;;;;;6370242;22;20018;-83
2023/07/27 01:37:01;;;;;;;2.85;1.30;;;12.30;99.90;;;;;;6342287;22;20553;-84
2023/07/27 01:39:30;;;;;;;3.78;1.20;;;12.40;99.90;;;;;;6370034;22;20018;-84
2023/07/27 01:41:56;;;;;;;4.70;1.80;;;12.40;99.90;;;;;;6342023;22;20015;-83
2023/07/27 01:44:25;;;;;;;5.57;1.33;;;12.20;99.90;;;;;;6342265;22;20014;-81
2023/07/27 01:46:55;;;;;;;4.00;1.63;;;12.30;99.90;;;;;;6342039;22;20066;-83
2023/07/27 01:49:23;;;;;;;3.05;1.10;;;12.10;99.90;;;;;;6341989;22;20087;-84
2023/07/27 01:51:50;;;;;;;4.13;1.23;;;12.20;99.90;;;;;;6369088;22;20090;-83
2023/07/27 01:54:16;;;;;;;4.97;1.40;;;12.20;99.90;;;;;;6364993;22;20104;-84
2023/07/27 01:56:44;;;;;;;2.92;1.35;;;12.20;99.90;;;;;;6369746;22;20445;-83
2023/07/27 01:59:10;;;;;;;3.28;1.20;;;12.20;99.90;;;;;;6368433;22;20072;-84
2023/07/27 02:01:37;;;;;;;2.83;1.20;;;12.10;99.90;;;;;;6369248;22;20018;-83
2023/07/27 02:04:05;;;;;;;6.55;1.55;;;12.00;99.90;;;;;;6370239;22;20018;-84
2023/07/27 02:06:30;;;;;;;3.03;1.50;;;12.10;99.90;;;;;;6368206;22;20025;-84
2023/07/27 02:08:56;;;;;;;2.65;0.80;;;12.10;99.90;;;;;;6341848;22;20010;-85
2023/07/27 02:11:24;;;;;;;3.00;1.13;;;12.10;99.90;;;;;;6369962;22;20095;-85
2023/07/27 02:14:11;;;;;;;3.30;1.10;;;12.10;99.90;;;;;;6369245;22;20036;-86
2023/07/27 02:16:54;;;;;;;1.45;0.80;;;12.10;99.90;;;;;;6368034;22;20097;-86
2023/07/27 02:19:26;;;;;;;2.70;0.90;;;12.10;99.90;;;;;;6369842;22;20021;-86
2023/07/27 02:21:54;;;;;;;3.00;0.80;;;12.10;99.90;;;;;;6370006;22;20052;-85
2023/07/27 02:24:21;;;;;;;2.42;1.02;;;12.10;99.90;;;;;;6367872;22;20056;-84
2023/07/27 02:26:47;;;;;;;2.55;0.82;;;12.10;99.90;;;;;;6367327;22;20018;-85
2023/07/27 02:29:13;;;;;;;1.60;0.80;;;12.10;99.90;;;;;;6367928;22;20063;-85
2023/07/27 02:31:39;;;;;;;1.80;0.90;;;12.10;99.90;;;;;;6368197;22;20025;-84
2023/07/27 02:34:04;;;;;;;1.30;0.70;;;12.10;99.90;;;;;;6368967;22;20006;-84
2023/07/27 02:36:30;;;;;;;1.40;0.73;;;12.10;99.90;;;;;;6369581;22;20034;-85
2023/07/27 02:38:56;;;;;;;2.38;1.05;;;12.40;99.90;;;;;;6368113;22;20025;-85
2023/07/27 02:41:22;;;;;;;2.33;1.10;;;12.10;99.90;;;;;;6368039;22;20341;-84
2023/07/27 02:43:47;;;;;;;4.20;1.00;;;12.10;99.90;;;;;;6369269;22;20014;-84
2023/07/27 02:46:13;;;;;;;2.08;0.90;;;12.40;99.90;;;;;;6367593;22;20520;-84
2023/07/27 02:48:39;;;;;;;2.40;1.13;;;12.30;99.90;;;;;;6368005;22;20322;-86
2023/07/27 02:51:05;;;;;;;2.47;2.08;;;12.10;99.90;;;;;;6370287;22;20194;-85
2023/07/27 02:53:30;;;;;;;2.03;1.00;;;12.20;99.90;;;;;;6369331;22;20010;-82
2023/07/27 02:56:02;;;;;;;3.60;0.80;;;12.40;99.90;;;;;;6341566;22;20018;-84
2023/07/27 02:58:28;;;;;;;2.42;1.30;;;12.20;99.90;;;;;;6342707;22;20497;-85
2023/07/27 03:00:57;;;;;;;4.63;1.08;;;12.20;99.90;;;;;;6342860;22;20079;-83
2023/07/27 03:03:23;;;;;;;2.33;0.77;;;12.20;99.90;;;;;;6343032;22;20021;-84
2023/07/27 03:06:00;;;;;;;1.52;0.82;;;12.30;99.90;;;;;;6370796;22;20014;-84
2023/07/27 03:08:27;;;;;;;1.92;0.82;;;12.20;99.90;;;;;;6371140;22;20021;-82
2023/07/27 03:10:53;;;;;;;1.60;0.90;;;12.20;99.90;;;;;;6371174;22;20017;-83
2023/07/27 03:13:19;;;;;;;2.40;1.17;;;12.20;99.90;;;;;;6371846;22;20158;-83
2023/07/27 03:15:45;;;;;;;2.70;1.05;;;12.20;99.90;;;;;;6371270;22;20089;-84
2023/07/27 03:18:10;;;;;;;1.60;0.70;;;12.30;99.90;;;;;;6371360;22;20049;-83
2023/07/27 03:20:41;;;;;;;2.13;1.00;;;12.30;99.90;;;;;;6371739;22;20361;-83
2023/07/27 03:23:07;;;;;;;3.00;1.17;;;12.30;99.90;;;;;;6371261;22;20014;-82
2023/07/27 03:25:34;;;;;;;4.45;1.20;;;12.50;99.90;;;;;;6371584;22;20093;-83
2023/07/27 03:28:05;;;;;;;2.38;0.93;;;12.30;99.90;;;;;;6370975;22;20086;-83
2023/07/27 03:30:31;;;;;;;3.22;1.20;;;12.30;99.90;;;;;;6371127;22;20456;-83
2023/07/27 03:32:57;;;;;;;3.25;1.13;;;12.30;99.90;;;;;;6343053;22;20034;-84
2023/07/27 03:35:23;;;;;;;2.08;0.82;;;12.30;99.90;;;;;;6371272;22;20053;-83
2023/07/27 03:37:52;;;;;;;1.92;1.00;;;12.30;99.90;;;;;;6342743;22;20071;-83
2023/07/27 03:40:19;;;;;;;2.97;1.10;;;12.40;99.90;;;;;;6370887;22;20083;-83
2023/07/27 03:42:45;;;;;;;2.00;1.10;;;12.40;99.90;;;;;;6371204;22;20022;-83
2023/07/27 03:45:11;;;;;;;1.65;0.80;;;12.40;99.90;;;;;;6371231;22;20014;-83
2023/07/27 03:47:37;;;;;;;2.58;0.88;;;12.50;99.90;;;;;;6343271;22;20059;-83
2023/07/27 03:50:03;;;;;;;1.42;0.75;;;12.50;99.90;;;;;;6371311;22;20391;-83
2023/07/27 03:52:29;;;;;;;2.20;0.88;;;12.50;99.90;;;;;;6342875;22;20014;-83
2023/07/27 03:54:54;;;;;;;6.05;1.33;;;12.50;99.90;;;;;;6368330;22;20049;-83
2023/07/27 03:57:20;;;;;;;1.98;1.08;;;12.60;99.90;;;;;;6369487;22;20015;-83
2023/07/27 03:59:46;;;;;;;4.25;1.10;;;12.60;99.90;;;;;;6370604;22;20417;-84
2023/07/27 04:02:11;;;;;;;1.63;0.93;;;12.60;99.90;;;;;;6369583;22;20153;-83
2023/07/27 04:04:37;;;;;;;3.22;1.10;;;12.70;99.90;;;;;;6370783;22;20014;-83
2023/07/27 04:07:03;;;;;;;3.00;1.00;;;12.40;99.90;;;;;;6370914;22;20014;-83
2023/07/27 04:09:28;;;;;;;2.40;1.00;;;12.70;99.90;;;;;;6369110;22;20014;-83
2023/07/27 04:11:54;;;;;;;5.07;1.05;;;12.70;99.90;;;;;;6370567;22;20063;-83
2023/07/27 04:14:20;;;;;;;2.05;1.00;;;12.70;99.90;;;;;;6371159;22;20017;-84
2023/07/27 04:16:45;;;;;;;2.42;1.00;;;12.70;99.90;;;;;;6369034;22;20314;-83
2023/07/27 04:19:11;;;;;;;2.03;0.90;;;12.80;99.90;;;;;;6370480;22;20010;-83
2023/07/27 04:21:37;;;;;;;3.25;1.10;;;12.80;99.90;;;;;;6370704;22;20010;-83
2023/07/27 04:24:03;;;;;;;3.13;1.10;;;12.80;99.90;;;;;;6369224;22;20014;-82
2023/07/27 04:26:29;;;;;;;1.70;0.82;;;12.80;99.90;;;;;;6370634;22;20477;-83
2023/07/27 04:28:55;;;;;;;2.08;0.80;;;12.90;99.90;;;;;;6370884;22;20011;-82
2023/07/27 04:31:20;;;;;;;4.05;0.82;;;13.00;99.90;;;;;;6368687;22;20049;-82
2023/07/27 04:33:46;;;;;;;1.33;0.77;;;12.90;99.90;;;;;;6370875;22;20068;-83
2023/07/27 04:36:12;;;;;;;2.38;1.08;;;12.90;99.90;;;;;;6370404;22;20345;-82
2023/07/27 04:38:37;;;;;;;1.88;1.05;;;13.00;99.90;;;;;;6370968;22;20506;-82
2023/07/27 04:41:03;;;;;;;1.50;0.77;;;13.00;99.90;;;;;;6370612;22;20318;-82
2023/07/27 04:43:29;;;;;;;2.65;1.13;;;13.00;99.90;;;;;;6370513;22;20468;-82
2023/07/27 04:45:54;;;;;;;1.52;0.90;;;13.10;99.90;;;;;;6368973;22;20015;-82
2023/07/27 04:48:20;;;;;;;1.70;0.75;;;13.10;99.90;;;;;;6370722;22;20010;-82
2023/07/27 04:50:47;;;;;;;2.55;1.20;;;13.20;99.90;;;;;;6370747;22;20025;-82
2023/07/27 04:53:12;;;;;;;2.60;1.00;;;13.20;99.90;;;;;;6370254;22;20014;-82
2023/07/27 04:55:38;;;;;;;1.73;0.95;;;13.30;99.90;;;;;;6342123;22;20113;-83
2023/07/27 04:58:04;;;;;;;2.88;1.20;;;13.30;99.90;;;;;;6370613;22;20018;-82
2023/07/27 05:00:30;;;;;;;2.35;0.95;;;13.30;99.90;;;;;;6342392;22;20091;-82
2023/07/27 05:02:58;;;;;;;1.92;1.00;;;13.30;99.90;;;;;;6342843;22;20017;-82
2023/07/27 05:05:24;;;;;;;2.53;1.30;;;13.40;99.90;;;;;;6369982;22;20448;-84
2023/07/27 05:07:49;;;;;;;2.00;1.10;;;13.40;99.90;;;;;;6370343;22;20025;-82
2023/07/27 05:10:15;;;;;;;2.88;1.27;;;13.40;99.90;;;;;;6342607;22;20021;-83
2023/07/27 05:12:41;;;;;;;2.42;1.10;;;13.40;99.90;;;;;;6342313;22;20348;-82
2023/07/27 05:15:07;;;;;;;3.05;1.20;;;13.40;99.90;;;;;;6370398;22;20441;-82
2023/07/27 05:17:32;;;;;;;1.67;0.90;;;13.50;99.90;;;;;;6342839;22;20014;-82
2023/07/27 05:19:58;;;;;;;2.50;1.15;;;13.50;99.90;;;;;;6342740;22;20010;-82
2023/07/27 05:22:24;;;;;;;3.70;1.05;;;13.60;99.90;;;;;;6342125;22;20382;-82
2023/07/27 05:24:49;;;;;;;1.92;1.00;;;13.60;99.90;;;;;;6342070;22;20091;-82
2023/07/27 05:27:15;;;;;;;3.40;1.10;;;13.80;99.90;;;;;;6370236;22;20083;-82
2023/07/27 05:29:42;;;;;;;2.92;1.23;;;13.70;99.90;;;;;;6342310;22;20071;-83
2023/07/27 05:32:08;;;;;;;1.83;0.90;;;13.70;99.90;;;;;;6370068;22;20091;-82
2023/07/27 05:34:34;;;;;;;2.08;1.10;;;13.80;99.90;;;;;;6341933;22;20094;-82
2023/07/27 05:37:00;;;;;;;3.33;1.27;;;13.80;99.90;;;;;;6369898;22;20018;-82
2023/07/27 05:39:28;;;;;;;2.25;1.27;;;13.80;99.90;;;;;;6370184;22;20022;-81
2023/07/27 05:41:53;;;;;;;2.70;1.00;;;13.90;99.90;;;;;;6370133;22;20064;-83
2023/07/27 05:44:20;;;;;;;2.30;0.90;;;14.00;99.90;;;;;;6369547;22;20326;-82
2023/07/27 05:46:46;;;;;;;3.70;1.50;;;14.00;99.90;;;;;;6342088;22;20045;-83
2023/07/27 05:49:12;;;;;;;4.72;1.42;;;14.00;99.90;;;;;;6342364;22;20018;-82
2023/07/27 05:51:38;;;;;;;2.38;1.30;;;14.10;99.90;;;;;;6369717;22;20341;-82
2023/07/27 05:54:04;;;;;;;3.95;1.33;;;14.10;99.90;;;;;;6369707;22;20045;-82
2023/07/27 05:56:29;;;;;;;2.90;1.33;;;14.10;99.90;;;;;;6341823;22;20326;-82
2023/07/27 05:58:55;;;;;;;3.70;1.52;;;14.10;99.90;;;;;;6341642;22;20022;-82
2023/07/27 06:01:21;;;;;;;2.35;1.10;;;14.10;99.90;;;;;;6341969;22;20437;-83
2023/07/27 06:03:46;;;;;;;2.53;1.20;;;14.10;99.90;;;;;;6369384;22;20344;-82
2023/07/27 06:06:12;;;;;;;2.83;1.30;;;14.10;99.90;;;;;;6369110;22;20018;-82
2023/07/27 06:08:38;;;;;;;2.75;1.30;;;14.20;99.90;;;;;;6341739;22;20025;-82
2023/07/27 06:11:06;;;;;;;3.17;1.02;;;14.10;99.90;;;;;;6369858;22;20023;-82
2023/07/27 06:13:33;;;;;;;2.40;1.10;;;14.10;99.90;;;;;;6370058;22;20038;-82
2023/07/27 06:16:00;;;;;;;2.85;1.10;;;14.00;99.90;;;;;;6341542;22;20046;-82
2023/07/27 06:18:26;;;;;;;3.78;1.30;;;14.10;99.90;;;;;;6369668;22;20617;-82
2023/07/27 06:20:52;;;;;;;2.22;1.40;;;14.10;99.90;;;;;;6369814;22;20087;-82
2023/07/27 06:23:18;;;;;;;2.33;1.17;;;14.40;99.90;;;;;;6369992;22;20018;-82
2023/07/27 06:25:44;;;;;;;2.42;1.10;;;14.20;99.90;;;;;;6369425;22;20056;-82
2023/07/27 06:28:11;;;;;;;3.60;1.05;;;14.20;99.90;;;;;;6369698;22;20089;-83
2023/07/27 06:30:38;;;;;;;2.55;1.02;;;14.20;99.90;;;;;;6370079;22;20010;-83
2023/07/27 06:33:05;;;;;;;4.53;1.33;;;14.30;99.90;;;;;;6370545;22;20022;-82
2023/07/27 06:35:31;;;;;;;1.98;1.00;;;14.30;99.90;;;;;;6343664;22;20345;-84
2023/07/27 06:37:56;;;;;;;2.05;0.90;;;14.40;99.90;;;;;;6371732;22;20014;-81
2023/07/27 06:40:22;;;;;;;1.70;0.82;;;14.70;99.90;;;;;;6371636;22;20014;-84
2023/07/27 06:42:48;;;;;;;1.23;0.63;;;14.50;99.90;;;;;;6371903;22;20046;-83
2023/07/27 06:45:14;;;;;;;1.20;0.68;;;14.60;99.90;;;;;;6343560;22;20400;-83
2023/07/27 06:47:40;;;;;;;2.53;1.00;;;14.80;99.90;;;;;;6343481;22;20037;-83
2023/07/27 06:50:06;;;;;;;1.40;0.80;;;14.90;99.90;;;;;;6342849;22;20030;-83
2023/07/27 06:52:32;;;;;;;2.47;1.05;;;15.00;99.90;;;;;;6371447;22;20460;-83
2023/07/27 06:54:58;;;;;;;2.13;0.90;;;15.10;99.90;;;;;;6369582;22;20010;-81
2023/07/27 06:57:27;;;;;;;1.17;0.80;;;15.10;99.90;;;;;;6371310;22;20096;-82
2023/07/27 06:59:53;;;;;;;1.60;0.90;;;15.30;99.90;;;;;;6370484;22;20336;-82
2023/07/27 07:02:19;;;;;;;1.52;0.75;;;15.30;99.90;;;;;;6369858;22;20046;-81
2023/07/27 07:04:45;;;;;;;1.77;1.00;;;15.40;99.90;;;;;;6371624;22;20041;-81
2023/07/27 07:07:11;;;;;;;1.83;0.88;;;15.50;99.90;;;;;;6369641;22;20037;-82
2023/07/27 07:09:38;;;;;;;2.45;1.00;;;15.50;99.90;;;;;;6369978;22;20041;-83
2023/07/27 07:12:07;;;;;;;2.33;1.10;;;15.60;99.90;;;;;;6372252;22;20014;-84
2023/07/27 07:14:33;;;;;;;3.15;1.00;;;15.60;99.90;;;;;;6371689;22;20019;-81
2023/07/27 07:17:00;;;;;;;3.08;0.80;;;15.60;99.90;;;;;;6371424;22;20013;-83
2023/07/27 07:19:26;;;;;;;1.15;0.65;;;15.60;99.90;;;;;;6371197;22;20094;-83
2023/07/27 07:21:52;;;;;;;2.40;0.85;;;15.70;99.90;;;;;;6371069;22;20042;-82
2023/07/27 07:24:18;;;;;;;2.20;1.00;;;15.70;99.90;;;;;;6369796;22;20025;-81
2023/07/27 07:26:45;;;;;;;2.67;0.90;;;15.70;99.90;;;;;;6371682;22;20345;-80
2023/07/27 07:29:11;;;;;;;1.10;0.63;;;15.70;99.90;;;;;;6371701;22;20022;-80
2023/07/27 07:31:37;;;;;;;1.65;0.93;;;15.70;99.90;;;;;;6369439;22;20014;-80
2023/07/27 07:34:02;;;;;;;2.53;0.80;;;15.70;99.90;;;;;;6371655;22;20073;-80
2023/07/27 07:36:28;;;;;;;2.50;0.95;;;15.70;99.90;;;;;;6371000;22;20022;-80
2023/07/27 07:38:54;;;;;;;2.78;0.70;;;15.80;99.90;;;;;;6369622;22;20089;-80
2023/07/27 07:41:23;;;;;;;1.83;0.68;;;15.90;99.90;;;;;;6370728;22;20015;-81
2023/07/27 07:43:49;;;;;;;2.20;1.00;;;15.90;99.90;;;;;;6342742;22;20452;-80
2023/07/27 07:46:15;;;;;;;1.15;0.60;;;16.10;99.90;;;;;;6371343;22;20018;-81
2023/07/27 07:48:41;;;;;;;1.27;1.10;;;16.20;99.90;;;;;;6371360;22;20362;-80
2023/07/27 07:51:14;;;;;;;1.85;0.90;;;16.20;99.90;;;;;;6371205;22;20014;-80
2023/07/27 07:53:40;;;;;;;1.38;0.63;;;16.30;99.90;;;;;;6370893;22;20022;-80
2023/07/27 07:56:13;;;;;;;1.52;0.70;;;16.40;99.90;;;;;;6371151;22;20022;-80
2023/07/27 07:58:39;;;;;;;1.10;0.47;;;16.40;99.90;;;;;;6371259;22;20018;-80
2023/07/27 08:01:04;;;;;;;2.15;0.65;;;16.40;99.90;;;;;;6371404;22;20044;-80
2023/07/27 08:03:30;;;;;;;1.33;0.60;;;16.40;99.90;;;;;;6370834;22;20341;-80
2023/07/27 08:05:57;;;;;;;1.92;0.70;;;16.40;99.90;;;;;;6370848;22;20464;-80
2023/07/27 08:08:22;;;;;;;1.30;0.88;;;16.40;99.90;;;;;;6371452;22;20383;-80
2023/07/27 08:10:48;;;;;;;0.82;0.55;;;16.40;99.90;;;;;;6371161;22;20022;-81
2023/07/27 08:13:14;;;;;;;1.60;0.63;;;16.50;99.90;;;;;;6370866;22;20492;-80
2023/07/27 08:15:39;;;;;;;1.55;0.60;;;16.50;99.90;;;;;;6371116;22;20018;-80
2023/07/27 08:18:05;;;;;;;2.75;1.00;;;16.50;99.90;;;;;;6370777;22;20387;-80
2023/07/27 08:20:31;;;;;;;1.42;0.70;;;16.50;99.90;;;;;;6343363;22;20014;-80
2023/07/27 08:22:57;;;;;;;1.08;0.65;;;16.50;99.90;;;;;;6342512;22;20018;-80
2023/07/27 08:25:22;;;;;;;1.27;0.68;;;16.50;99.90;;;;;;6370124;22;20010;-81
2023/07/27 08:27:50;;;;;;;1.23;0.73;;;16.50;99.90;;;;;;6342419;22;20017;-81
2023/07/27 08:30:16;;;;;;;1.05;0.60;;;16.50;99.90;;;;;;6370813;22;20053;-81
2023/07/27 08:32:42;;;;;;;2.42;0.60;;;16.50;99.90;;;;;;6370912;22;20386;-81
2023/07/27 08:35:08;;;;;;;1.70;0.70;;;16.50;99.90;;;;;;6370144;22;20025;-81
2023/07/27 08:37:34;;;;;;;1.65;0.70;;;16.50;99.90;;;;;;6370274;22;20018;-81
2023/07/27 08:39:59;;;;;;;0.68;0.47;;;16.50;99.90;;;;;;6343102;22;20085;-81
2023/07/27 08:42:25;;;;;;;0.60;0.40;;;16.50;99.90;;;;;;6370726;22;20014;-81
2023/07/27 08:44:51;;;;;;;2.03;0.82;;;16.50;99.90;;;;;;6370187;22;20337;-81
2023/07/27 08:47:18;;;;;;;0.85;0.50;;;16.60;99.90;;;;;;6342457;22;20027;-81
2023/07/27 08:49:45;;;;;;;1.20;0.52;;;16.60;99.90;;;;;;6370373;22;20017;-81
2023/07/27 08:52:13;;;;;;;0.50;0.30;;;16.60;99.90;;;;;;6370575;22;20025;-81
2023/07/27 08:54:39;;;;;;;0.93;0.75;;;16.60;99.90;;;;;;6369734;22;20021;-81
2023/07/27 08:57:05;;;;;;;0.60;0.40;;;16.70;99.90;;;;;;6370356;22;20014;-81
2023/07/27 08:59:31;;;;;;;0.50;0.30;;;16.70;99.90;;;;;;6370414;22;20081;-81
2023/07/27 09:01:57;;;;;;;0.60;0.38;;;16.80;99.90;;;;;;6370449;22;20022;-81
2023/07/27 09:04:23;;;;;;;0.80;0.40;;;16.80;99.90;;;;;;6370504;22;20014;-80
2023/07/27 09:06:49;;;;;;;2.75;0.40;;;16.80;99.90;;;;;;6369733;22;20018;-81
2023/07/27 09:09:16;;;;;;;0.32;0.30;;;16.80;99.90;;;;;;6370299;22;20023;-80
2023/07/27 09:11:43;;;;;;;1.05;0.52;;;16.80;99.90;;;;;;6370572;22;20056;-81
2023/07/27 09:14:09;;;;;;;0.40;0.30;;;16.90;99.90;;;;;;6370533;22;20027;-81
2023/07/27 09:16:35;;;;;;;0.57;0.43;;;16.90;99.90;;;;;;6370478;22;20018;-81
2023/07/27 09:19:01;;;;;;;0.30;0.30;;;16.90;99.90;;;;;;6341905;22;20341;-81
2023/07/27 09:21:27;;;;;;;0.57;0.40;;;16.90;99.90;;;;;;6370399;22;20027;-81
2023/07/27 09:23:58;;;;;;;0.40;0.40;;;16.90;99.90;;;;;;6369979;22;20521;-81
2023/07/27 09:26:26;;;;;;;0.47;0.30;;;16.90;99.90;;;;;;6369949;22;20018;-81
2023/07/27 09:28:53;;;;;;;0.75;0.40;;;17.00;99.90;;;;;;6369996;22;20045;-81
2023/07/27 09:31:19;;;;;;;0.60;0.40;;;17.10;99.90;;;;;;6370233;22;20064;-81
2023/07/27 09:33:45;;;;;;;0.50;0.40;;;17.20;99.90;;;;;;6342090;22;20318;-81
2023/07/27 09:36:11;;;;;;;0.30;0.22;;;17.30;99.90;;;;;;6369883;22;20010;-81
2023/07/27 09:38:37;;;;;;;0.88;0.40;;;17.40;99.90;;;;;;6369381;22;20448;-81
2023/07/27 09:41:07;;;;;;;0.60;0.38;;;17.50;99.90;;;;;;6370397;22;20074;-81
2023/07/27 09:43:39;;;;;;;0.47;0.30;;;17.70;99.90;;;;;;6369799;22;20529;-80
2023/07/27 09:46:05;;;;;;;0.85;0.47;;;17.70;99.90;;;;;;6341904;22;20022;-82
2023/07/27 09:48:32;;;;;;;0.63;0.38;;;17.80;99.90;;;;;;6369556;22;20034;-80
2023/07/27 09:51:01;;;;;;;0.63;0.40;;;17.90;99.90;;;;;;6369458;22;20022;-82
2023/07/27 09:53:31;;;;;;;0.40;0.30;;;17.80;99.90;;;;;;6344610;22;20465;-81
2023/07/27 09:55:58;;;;;;;0.40;0.38;;;17.90;99.90;;;;;;6368468;22;20022;-82
2023/07/27 09:58:24;;;;;;;0.60;0.40;;;17.90;99.90;;;;;;6369629;22;20014;-81
2023/07/27 10:00:50;;;;;;;0.60;0.40;;;17.90;99.90;;;;;;6369486;22;20010;-81
2023/07/27 10:03:16;;;;;;;0.38;0.38;;;17.90;99.90;;;;;;6369806;22;20091;-82
2023/07/27 10:05:43;;;;;;;0.80;0.40;;;17.90;99.90;;;;;;6369380;22;20022;-82
2023/07/27 10:08:08;;;;;;;0.35;0.30;;;17.90;99.90;;;;;;6369631;22;20014;-81
2023/07/27 10:10:38;;;;;;;0.47;0.30;;;17.90;99.90;;;;;;6367534;22;20022;-81
2023/07/27 10:13:30;;;;;;;0.30;0.30;;;17.90;99.90;;;;;;6367656;22;20353;-81
2023/07/27 10:15:57;;;;;;;0.52;0.30;;;17.90;99.90;;;;;;6369079;22;20018;-82
2023/07/27 10:18:24;;;;;;;0.45;0.30;;;17.80;99.90;;;;;;6367707;22;20010;-82
2023/07/27 10:20:51;;;;;;;0.57;0.40;;;17.90;99.90;;;;;;6369604;22;20419;-81
2023/07/27 10:23:25;;;;;;;0.30;0.25;;;17.90;99.90;;;;;;6369305;22;20011;-83
2023/07/27 10:25:57;;;;;;;0.60;0.40;;;18.00;99.90;;;;;;6369285;22;20010;-83
2023/07/27 10:28:39;;;;;;;0.30;0.30;;;18.00;99.90;;;;;;6341760;22;20394;-83
2023/07/27 10:31:14;;;;;;;0.73;0.30;;;18.00;99.90;;;;;;6369462;22;20359;-82
2023/07/27 10:33:46;;;;;;;;;;;18.00;99.90;;;;;;6368104;22;20029;-81
2023/07/27 10:36:13;;;;;;;0.75;0.40;;;18.00;99.90;;;;;;6369237;22;19921;-80
2023/07/27 10:38:39;;;;;;;0.47;0.40;;;18.10;99.90;;;;;;6369462;22;20046;-82
2023/07/27 10:41:14;;;;;;;0.30;0.30;;;18.10;99.90;;;;;;6370055;22;20017;-84
2023/07/27 10:43:59;;;;;;;;;;;18.10;99.90;;;;;;6368128;22;20330;-83
2023/07/27 10:46:25;;;;;;;0.65;0.35;;;18.00;99.90;;;;;;6369347;22;19914;-82
2023/07/27 10:49:16;;;;;;;0.30;0.30;;;18.10;99.90;;;;;;6369409;22;20313;-82
2023/07/27 10:51:44;;;;;;;0.45;0.30;;;18.10;99.90;;;;;;6369836;22;20063;-82
2023/07/27 10:54:10;;;;;;;0.30;0.30;;;18.20;99.90;;;;;;6366514;22;20018;-86
2023/07/27 10:56:36;;;;;;;0.40;0.40;;;18.20;99.90;;;;;;6369540;22;20094;-87
2023/07/27 10:59:02;;;;;;;0.55;0.30;;;18.20;99.90;;;;;;6342292;22;20054;-89
2023/07/27 11:01:29;;;;;;;0.20;0.20;;;18.20;99.90;;;;;;6368394;22;20348;-88
2023/07/27 11:03:56;;;;;;;0.90;0.40;;;18.10;99.90;;;;;;6342694;22;20022;-88
2023/07/27 11:06:22;;;;;;;1.25;0.20;;;18.10;99.90;;;;;;6371033;22;20053;-86
2023/07/27 11:08:50;;;;;;;0.50;0.30;;;18.10;99.90;;;;;;6369518;22;20034;-90
2023/07/27 11:11:26;;;;;;;0.60;0.40;;;18.00;99.90;;;;;;6371228;22;20015;-89
2023/07/27 11:13:53;;;;;;;0.30;0.30;;;18.00;99.90;;;;;;6368511;22;20019;-88
2023/07/27 11:16:19;;;;;;;1.02;0.40;;;17.90;99.90;;;;;;6369604;22;20441;-86
2023/07/27 11:18:45;;;;;;;0.35;0.30;;;17.90;99.90;;;;;;6369563;22;20048;-83
2023/07/27 11:21:16;;;;;;;0.80;0.40;;;17.80;99.90;;;;;;6371535;22;20036;-82
2023/07/27 11:23:45;;;;;;;0.20;0.20;;;17.80;99.90;;;;;;6371710;22;20318;-82
2023/07/27 11:26:12;;;;;;;0.30;0.20;;;17.80;99.90;;;;;;6371512;22;20025;-82
2023/07/27 11:28:39;;;;;;;0.10;0.10;;;17.70;99.90;;;;;;6371564;22;20071;-84
2023/07/27 11:31:06;;;;;;;0.57;0.30;;;17.80;99.90;;;;;;6371663;22;20510;-84
2023/07/27 11:33:33;;;;;;;0.75;0.40;;;17.80;99.90;;;;;;6371606;22;20022;-85
2023/07/27 11:36:00;;;;;;;3.05;0.30;;;17.80;99.90;;;;;;6371411;22;20440;-85
2023/07/27 11:38:27;;;;;;;0.40;0.30;;;17.80;99.90;;;;;;6371168;22;20011;-86
2023/07/27 11:40:55;;;;;;;0.25;0.25;;;17.80;99.90;;;;;;6371737;22;20010;-86
2023/07/27 11:43:21;;;;;;;0.20;0.20;;;17.80;99.90;;;;;;6371871;22;20333;-84
2023/07/27 11:45:47;;;;;;;0.35;0.20;;;17.80;99.90;;;;;;6371592;22;20344;-91
2023/07/27 11:48:13;;;;;;;0.20;0.20;;;17.80;99.90;;;;;;6370141;22;20025;-82
2023/07/27 11:50:39;;;;;;;0.13;0.10;;;17.70;99.90;;;;;;6372271;22;20018;-83
2023/07/27 11:53:11;;;;;;;0.45;0.30;;;17.80;99.90;;;;;;6372623;22;20022;-82
2023/07/27 11:55:37;;;;;;;1.20;0.10;;;17.80;99.90;;;;;;6344193;22;20155;-83
2023/07/27 11:58:11;;;;;;;0.68;0.20;;;17.70;99.90;;;;;;6344349;22;20014;-83
2023/07/27 12:00:37;;;;;;;0.20;0.20;;;17.80;99.90;;;;;;6345837;22;20022;-83
2023/07/27 12:03:04;;;;;;;0.30;0.30;;;17.80;99.90;;;;;;6346862;22;20056;-83
2023/07/27 12:05:33;;;;;;;0.20;0.20;;;17.80;99.90;;;;;;6376921;22;20333;-85
2023/07/27 12:07:59;;;;;;;0.25;0.25;;;17.80;99.90;;;;;;6379093;22;20006;-85
2023/07/27 12:10:24;;;;;;;0.15;0.15;;;17.80;99.90;;;;;;6352929;22;20022;-88
2023/07/27 12:12:57;;;;;;;0.40;0.20;;;17.90;99.90;;;;;;6383385;22;20015;-92
2023/07/27 12:15:28;;;;;;;0.28;0.28;;;17.90;99.90;;;;;;6380657;22;20014;-85
2023/07/27 12:17:58;;;;;;;0.35;0.10;;;18.00;99.90;;;;;;6352198;22;20702;-82
2023/07/27 12:20:25;;;;;;;0.25;0.10;;;18.10;99.90;;;;;;6379993;22;20025;-85
2023/07/27 12:23:03;;;;;;;0.20;0.20;;;18.10;99.90;;;;;;6325041;22;20044;-83
2023/07/27 12:25:29;;;;;;;0.10;0.10;;;18.10;99.90;;;;;;6351759;22;20018;-83
2023/07/27 12:27:55;;;;;;;0.55;0.20;;;18.20;99.90;;;;;;6355883;22;20028;-85
2023/07/27 12:30:23;;;;;;;0.10;0.10;;;18.20;99.90;;;;;;6358118;22;20096;-82
2023/07/27 12:32:50;;;;;;;0.15;0.15;;;18.30;99.90;;;;;;6382639;22;20022;-84
2023/07/27 12:35:17;;;;;;;0.40;0.20;;;18.30;99.90;;;;;;6382737;22;20014;-83
2023/07/27 12:37:45;;;;;;;0.25;0.10;;;18.40;99.90;;;;;;6352738;22;20094;-84
2023/07/27 12:40:12;;;;;;;0.10;0.10;;;18.40;99.90;;;;;;6350421;22;20066;-85
2023/07/27 12:42:38;;;;;;;0.10;0.10;;;18.40;99.90;;;;;;6345914;22;20054;-84
2023/07/27 12:45:04;;;;;;;0.20;0.20;;;18.50;99.90;;;;;;6373231;22;20046;-83
2023/07/27 12:47:30;;;;;;;0.30;0.22;;;18.50;99.90;;;;;;6372420;22;20093;-84
2023/07/27 12:49:55;;;;;;;0.30;0.20;;;18.60;99.90;;;;;;6371879;22;20014;-87